Chief Group > Financial Information > HK Stocks Info > Short Selling
Short

Short Selling


Date

v

 Stock code

 

Stock
Code
Stock Name Date Volume (K) Volume
($M)
Total Turn.
($M)
Sht Turn. /
Ttl Turn.
Sht Turn. /
Ttl Trans.
00001 CKH HOLDINGS 2018-06-15 1,543.50 136.44 664.07 20.55 1.08
00002 CLP HOLDINGS 2018-06-15 917.50 74.72 351.69 21.25 0.59
00003 HK & CHINA GAS 2018-06-15 7,473.00 111.28 501.29 22.20 0.88
00004 WHARF HOLDINGS 2018-06-15 3,160.00 83.34 323.69 25.75 0.66
00005 HSBC HOLDINGS 2018-06-15 934.80 71.65 1,253.38 5.72 0.57
00006 POWER ASSETS 2018-06-15 900.00 49.83 331.79 15.02 0.40
00008 PCCW 2018-06-15 1,232.00 5.56 87.53 6.36 0.04
00010 HANG LUNG GROUP 2018-06-15 263.00 6.25 114.08 5.48 0.05
00011 HANG SENG BANK 2018-06-15 366.20 72.42 304.69 23.77 0.57
00012 HENDERSON LAND 2018-06-15 175.00 7.74 169.37 4.57 0.06
00014 HYSAN DEV 2018-06-15 472.00 21.48 91.52 23.47 0.17
00016 SHK PPT 2018-06-15 370.00 45.86 445.78 10.29 0.36
00017 NEW WORLD DEV 2018-06-15 1,534.00 18.04 186.70 9.66 0.14
00019 SWIRE PACIFIC A 2018-06-15 703.00 58.57 317.51 18.45 0.46
00020 WHEELOCK 2018-06-15 78.00 4.51 86.75 5.20 0.04
00023 BANK OF E ASIA 2018-06-15 1,632.80 52.53 103.05 50.98 0.42
00027 GALAXY ENT 2018-06-15 1,183.00 76.05 596.05 12.76 0.60
00028 TIAN AN 2018-06-15 1.00 0.00 1.03 0.47 0.00
00030 BAN LOONG HOLD 2018-06-15 56.00 0.01 1.03 1.04 0.00
00031 CHINA AEROSPACE 2018-06-15 286.00 0.23 2.40 9.49 0.00
00034 KOWLOON DEV 2018-06-15 38.00 0.34 2.33 14.70 0.00
00038 FIRST TRACTOR 2018-06-15 28.00 0.08 1.29 6.15 0.00
00041 GREAT EAGLE H 2018-06-15 2.00 0.08 7.14 1.12 0.00
00043 C.P. POKPHAND 2018-06-15 144.00 0.11 4.33 2.63 0.00
00044 HAECO 2018-06-15 21.20 1.46 10.89 13.42 0.01
00045 HK&S HOTELS 2018-06-15 19.50 0.25 10.00 2.50 0.00
00053 GUOCO GROUP 2018-06-15 2.00 0.24 13.71 1.75 0.00
00054 HOPEWELL HOLD 2018-06-15 122.00 3.34 17.31 19.31 0.03
00056 ALLIED PPT (HK) 2018-06-15 8.00 0.01 1.88 0.74 0.00
00066 MTR CORPORATION 2018-06-15 567.50 24.73 217.87 11.35 0.20
00069 SHANGRI-LA ASIA 2018-06-15 520.00 8.64 61.04 14.16 0.07
00071 MIRAMAR HOTEL 2018-06-15 1.00 0.02 2.44 0.64 0.00
00078 REGAL INT'L 2018-06-15 6.00 0.03 0.86 3.55 0.00
00081 CH OVS G OCEANS 2018-06-15 580.00 2.00 12.62 15.82 0.02
00083 SINO LAND 2018-06-15 2,466.00 33.16 116.66 28.43 0.26
00086 SUN HUNG KAI CO 2018-06-15 7.00 0.03 3.71 0.92 0.00
00095 LVGEM CHINA 2018-06-15 94.00 0.30 5.85 5.13 0.00
00101 HANG LUNG PPT 2018-06-15 1,262.00 21.69 291.43 7.44 0.17
00102 SUMMIT ASCENT 2018-06-15 88.00 0.08 1.29 6.08 0.00
00107 SICHUAN EXPRESS 2018-06-15 12.00 0.03 5.19 0.61 0.00
00116 CHOW SANG SANG 2018-06-15 4.00 0.06 7.57 0.84 0.00
00119 POLY PROPERTY 2018-06-15 619.00 2.31 26.40 8.77 0.02
00123 YUEXIU PROPERTY 2018-06-15 6,202.00 10.29 53.49 19.25 0.08
00127 CHINESE EST H 2018-06-15 30.00 0.35 6.28 5.54 0.00
00135 KUNLUN ENERGY 2018-06-15 8,136.00 57.29 187.87 30.49 0.45
00136 HENGTEN NET 2018-06-15 116.00 0.04 39.69 0.09 0.00
00142 FIRST PACIFIC 2018-06-15 640.00 2.73 54.64 4.99 0.02
00144 CHINA MER PORT 2018-06-15 754.00 12.95 144.34 8.97 0.10
00147 IB SETTLEMENT 2018-06-15 10.00 0.00 0.79 0.36 0.00
00148 KINGBOARD CHEM 2018-06-15 192.00 6.13 132.94 4.61 0.05
00151 WANT WANT CHINA 2018-06-15 2,812.00 21.43 156.44 13.70 0.17
00152 SHENZHEN INT'L 2018-06-15 711.00 12.24 74.37 16.46 0.10
00161 AVIC IHL 2018-06-15 2.00 0.01 0.94 1.08 0.00
00163 EMPEROR INT'L 2018-06-15 12.00 0.03 6.18 0.48 0.00
00165 CHINA EB LTD 2018-06-15 132.00 2.19 48.66 4.50 0.02
00168 TSINGTAO BREW 2018-06-15 338.00 15.89 167.78 9.47 0.13
00169 WANDA HOTEL DEV 2018-06-15 13.00 0.01 0.95 1.38 0.00
00171 SILVER GRANT 2018-06-15 158.00 0.36 21.94 1.65 0.00
00173 K. WAH INT'L 2018-06-15 128.00 0.64 19.82 3.21 0.01
00175 GEELY AUTO 2018-06-15 2,026.00 47.09 1,060.95 4.44 0.37
00177 JIANGSU EXPRESS 2018-06-15 36.00 0.40 73.85 0.54 0.00
00178 SA SA INT'L 2018-06-15 276.00 1.49 39.60 3.77 0.01
00179 JOHNSON ELEC H 2018-06-15 147.50 3.75 26.31 14.27 0.03
00182 CONCORD NE 2018-06-15 740.00 0.27 8.05 3.33 0.00
00189 DONGYUE GROUP 2018-06-15 2,424.00 17.45 92.60 18.84 0.14
00196 HONGHUA GROUP 2018-06-15 326.00 0.26 6.84 3.77 0.00
00198 SMI HOLDINGS 2018-06-15 232.00 0.75 5.94 12.69 0.01
00200 MELCO INT'L DEV 2018-06-15 336.00 8.42 80.91 10.40 0.07
00207 JOY CITY PPT 2018-06-15 94.00 0.11 7.58 1.45 0.00
00215 HUTCHTEL HK 2018-06-15 818.00 2.36 12.01 19.62 0.02
00217 CHINA CHENGTONG 2018-06-15 664.00 0.21 0.98 21.52 0.00
00220 U-PRESID CHINA 2018-06-15 1,515.00 14.24 59.07 24.11 0.11
00232 AVIC INT'L 2018-06-15 218.00 0.07 1.99 3.46 0.00
00235 CHINA STRATEGIC 2018-06-15 115.00 0.01 1.08 1.00 0.00
00241 ALI HEALTH 2018-06-15 3,262.00 24.74 393.82 6.28 0.20
00242 SHUN TAK HOLD 2018-06-15 38.00 0.13 12.44 1.05 0.00
00245 CN MINSHENG FIN 2018-06-15 580.00 0.15 2.15 6.96 0.00
00256 CITYCHAMP 2018-06-15 26.00 0.04 2.83 1.53 0.00
00257 CHINA EB INT'L 2018-06-15 2,316.00 25.19 251.66 10.01 0.20
00258 TOMSON GROUP 2018-06-15 14.00 0.05 1.36 3.32 0.00
00267 CITIC 2018-06-15 3,577.00 41.43 196.97 21.03 0.33
00268 KINGDEE INT'L 2018-06-15 8,282.00 73.04 319.21 22.88 0.58
00270 GUANGDONG INV 2018-06-15 138.00 1.80 137.43 1.31 0.01
00272 SHUI ON LAND 2018-06-15 1,282.50 2.76 23.49 11.77 0.02
00273 MASON GP HOLD 2018-06-15 1,600.00 0.24 1.87 12.66 0.00
00285 BYD ELECTRONIC 2018-06-15 957.00 11.54 95.82 12.05 0.09
00286 CS HEALTH 2018-06-15 10.00 0.01 1.61 0.47 0.00
00288 WH GROUP 2018-06-15 2,168.00 15.25 597.73 2.55 0.12
00291 CHINA RES BEER 2018-06-15 1,720.00 66.55 349.37 19.05 0.53
00293 CATHAY PAC AIR 2018-06-15 538.00 7.34 43.05 17.04 0.06
00297 SINOFERT 2018-06-15 426.00 0.43 7.36 5.84 0.00
00303 VTECH HOLDINGS 2018-06-15 14.20 1.37 46.18 2.97 0.01
00308 CHINA TRAVEL HK 2018-06-15 234.00 0.77 41.85 1.84 0.01
00315 SMARTONE TELE 2018-06-15 6.50 0.06 6.21 0.90 0.00
00316 OOIL 2018-06-15 6.00 0.44 37.43 1.17 0.00
00317 COMEC 2018-06-15 126.00 1.12 9.05 12.35 0.01
00321 TEXWINCA HOLD 2018-06-15 28.00 0.11 10.05 1.06 0.00
00322 TINGYI 2018-06-15 36.00 0.66 248.55 0.26 0.01
00323 MAANSHAN IRON 2018-06-15 1,138.00 4.66 49.84 9.35 0.04
00327 PAX GLOBAL 2018-06-15 358.00 1.50 10.74 13.97 0.01
00330 ESPRIT HOLDINGS 2018-06-15 920.30 2.29 9.41 24.31 0.02
00336 HUABAO INTL 2018-06-15 24.00 0.14 18.01 0.76 0.00
00337 GREENLAND HK 2018-06-15 172.00 0.59 12.80 4.60 0.00
00338 SHANGHAI PECHEM 2018-06-15 4,690.00 26.20 151.13 17.34 0.21
00341 CAFE DE CORAL H 2018-06-15 14.00 0.28 5.86 4.73 0.00
00342 NEWOCEAN ENERGY 2018-06-15 168.00 0.26 2.03 12.73 0.00
00345 VITASOY INT'L 2018-06-15 152.00 3.74 110.39 3.39 0.03
00347 ANGANG STEEL 2018-06-15 1,152.00 9.69 102.94 9.41 0.08
00354 CHINASOFT INT'L 2018-06-15 534.00 3.65 53.08 6.88 0.03
00358 JIANGXI COPPER 2018-06-15 2,432.00 27.17 141.15 19.25 0.22
00363 SHANGHAI IND H 2018-06-15 57.00 1.14 30.71 3.73 0.01
00368 SINOTRANS SHIP 2018-06-15 682.00 1.56 10.18 15.35 0.01
00369 WING TAI PPT 2018-06-15 2.00 0.01 0.72 1.85 0.00
00371 BJ ENT WATER 2018-06-15 4,470.00 20.37 90.91 22.40 0.16
00378 FDG KINETIC 2018-06-15 210.00 0.03 3.61 0.92 0.00
00383 CHINA MED&HCARE 2018-06-15 60.00 0.02 0.02 75.00 0.00
00384 CHINA GAS HOLD 2018-06-15 4,440.00 142.97 828.47 17.26 1.13
00386 SINOPEC CORP 2018-06-15 16,202.00 117.07 1,074.98 10.89 0.93
00388 HKEX 2018-06-15 292.00 74.59 1,148.21 6.50 0.59
00390 CHINA RAILWAY 2018-06-15 8,407.00 51.58 182.50 28.26 0.41
00392 BEIJING ENT 2018-06-15 665.00 28.13 101.13 27.82 0.22
00400 COGOBUY 2018-06-15 198.00 0.78 10.28 7.57 0.01
00405 YUEXIU REIT 2018-06-15 130.00 0.71 19.39 3.66 0.01
00410 SOHO CHINA 2018-06-15 839.00 3.31 31.51 10.50 0.03
00419 HUAYI TENCENT 2018-06-15 1,420.00 0.57 16.56 3.43 0.00
00425 MINTH GROUP 2018-06-15 784.00 28.63 77.54 36.93 0.23
00433 NORTH MINING 2018-06-15 4,180.00 0.49 11.07 4.41 0.00
00434 BOYAA 2018-06-15 83.00 0.21 2.69 7.73 0.00
00435 SUNLIGHT REIT 2018-06-15 6.00 0.03 2.87 1.16 0.00
00439 KUANGCHI 2018-06-15 118.00 0.13 1.19 11.34 0.00
00440 DAH SING 2018-06-15 19.20 0.96 9.28 10.39 0.01
00451 GCL NEWENERGY 2018-06-15 6,296.00 2.48 20.27 12.24 0.02
00460 SIHUAN PHARM 2018-06-15 9,584.00 19.14 78.65 24.33 0.15
00467 UNITEDENERGY GP 2018-06-15 1,146.00 0.95 23.05 4.11 0.01
00468 GAPACK 2018-06-15 23.00 0.12 6.71 1.77 0.00
00480 HKR INT'L 2018-06-15 1.60 0.01 2.46 0.34 0.00
00488 LAI SUN DEV 2018-06-15 44.40 0.62 5.99 10.35 0.00
00489 DONGFENG GROUP 2018-06-15 2,454.00 21.83 140.01 15.59 0.17
00493 GOME RETAIL 2018-06-15 1,902.00 1.58 61.50 2.57 0.01
00494 LI & FUNG 2018-06-15 3,774.00 11.55 66.41 17.39 0.09
00497 CSI PROPERTIES 2018-06-15 120.00 0.06 3.55 1.76 0.00
00506 CHINA FOODS 2018-06-15 3,400.00 14.88 41.51 35.85 0.12
00508 DINGYI GP INV 2018-06-15 825.00 0.63 5.68 11.03 0.00
00511 TVB 2018-06-15 83.90 2.25 8.62 26.14 0.02
00512 CHINAGRANDPHARM 2018-06-15 860.00 4.70 42.70 11.01 0.04
00519 APPLIED DEV 2018-06-15 15.00 0.01 0.83 1.38 0.00
00520 XIABUXIABU 2018-06-15 30.00 0.50 11.77 4.25 0.00
00522 ASM PACIFIC 2018-06-15 283.30 29.80 182.25 16.35 0.24
00525 GUANGSHEN RAIL 2018-06-15 16.00 0.07 17.64 0.41 0.00
00530 GOLDIN FIN HOLD 2018-06-15 84.00 0.30 4.87 6.21 0.00
00535 GEMDALE PPT 2018-06-15 1,578.00 1.47 22.02 6.66 0.01
00538 AJISEN (CHINA) 2018-06-15 206.00 0.64 1.19 53.51 0.01
00546 FUFENG GROUP 2018-06-15 527.00 2.13 22.70 9.37 0.02
00547 DIGITAL DOMAIN 2018-06-15 970.00 0.15 8.06 1.81 0.00
00548 SHENZHENEXPRESS 2018-06-15 50.00 0.40 17.43 2.29 0.00
00551 YUE YUEN IND 2018-06-15 667.50 15.67 113.54 13.80 0.12
00552 CHINACOMSERVICE 2018-06-15 38.00 0.19 44.32 0.43 0.00
00563 SH IND URBAN 2018-06-15 644.00 1.10 6.88 16.06 0.01
00570 TRAD CHI MED 2018-06-15 4,622.00 33.75 161.09 20.95 0.27
00572 FUTURE WORLD FH 2018-06-15 1,132.00 0.16 2.45 6.46 0.00
00576 ZHEJIANGEXPRESS 2018-06-15 488.00 3.69 75.61 4.89 0.03
00579 JNCEC 2018-06-15 370.00 0.72 17.95 4.04 0.01
00580 SUN.KING ELEC 2018-06-15 8.00 0.01 0.14 8.51 0.00
00581 CHINA ORIENTAL 2018-06-15 722.00 4.60 135.92 3.38 0.04
00586 CONCH VENTURE 2018-06-15 1,208.00 35.43 292.89 12.10 0.28
00588 BEIJING N STAR 2018-06-15 112.00 0.31 4.86 6.31 0.00
00590 LUK FOOK HOLD 2018-06-15 17.00 0.58 23.72 2.46 0.00
00598 SINOTRANS 2018-06-15 1,147.00 4.88 37.71 12.95 0.04
00603 CHINA OIL & GAS 2018-06-15 20.00 0.01 0.88 1.50 0.00
00604 SHENZHEN INVEST 2018-06-15 9,214.00 28.02 70.52 39.73 0.22
00606 CHINA AGRI 2018-06-15 801.00 2.51 46.40 5.41 0.02
00607 FULLSHARE 2018-06-15 3,882.50 14.32 106.81 13.41 0.11
00627 FULLSUN INT'L 2018-06-15 35.00 0.05 1.96 2.33 0.00
00636 KERRY LOG NET 2018-06-15 0.50 0.01 5.40 0.11 0.00
00639 SHOUGANG RES 2018-06-15 82.00 0.17 23.97 0.70 0.00
00656 FOSUN INTL 2018-06-15 1,222.50 20.38 141.42 14.41 0.16
00658 C TRANSMISSION 2018-06-15 141.00 1.57 6.54 24.07 0.01
00659 NWS HOLDINGS 2018-06-15 1,835.00 27.73 65.07 42.61 0.22
00665 HAITONG INT'L 2018-06-15 3,465.00 14.45 52.23 27.67 0.11
00669 TECHTRONIC IND 2018-06-15 80.00 3.77 160.85 2.34 0.03
00670 CHINA EAST AIR 2018-06-15 2,378.00 16.61 227.37 7.31 0.13
00672 ZHONGAN REALEST 2018-06-15 73.00 0.03 1.61 2.01 0.00
00680 NAN HAI CORP 2018-06-15 100.00 0.02 4.65 0.40 0.00
00683 KERRY PPT 2018-06-15 549.50 23.20 83.71 27.71 0.18
00686 PANDA GREEN 2018-06-15 3,594.00 2.35 9.62 24.43 0.02
00687 HKICIM GROUP 2018-06-15 8.00 0.02 5.04 0.33 0.00
00688 CHINA OVERSEAS 2018-06-15 3,210.00 92.15 562.49 16.38 0.73
00694 BEIJING AIRPORT 2018-06-15 550.00 6.50 106.64 6.10 0.05
00696 TRAVELSKY TECH 2018-06-15 184.00 4.34 64.56 6.72 0.03
00697 SHOUGANG INT'L 2018-06-15 3,238.00 0.72 5.70 12.54 0.01
00698 TONGDA GROUP 2018-06-15 5,590.00 10.51 24.49 42.92 0.08
00699 CAR INC 2018-06-15 320.00 2.61 33.55 7.79 0.02
00700 TENCENT 2018-06-15 2,164.50 895.64 9,569.32 9.36 7.11
00708 EVERG HEALTH 2018-06-15 25.00 0.11 48.83 0.23 0.00
00709 GIORDANO INT'L 2018-06-15 104.00 0.53 28.67 1.84 0.00
00710 BOE VARITRONIX 2018-06-15 64.00 0.20 7.55 2.63 0.00
00715 CHINA OCEANWIDE 2018-06-15 72.00 0.03 5.28 0.54 0.00
00716 SINGAMAS CONT 2018-06-15 60.00 0.08 2.62 3.01 0.00
00718 TAI UNITED HOLD 2018-06-15 255.00 0.19 3.83 4.92 0.00
00728 CHINA TELECOM 2018-06-15 9,414.00 34.14 247.88 13.77 0.27
00729 FDG EVEHICLES 2018-06-15 14,765.00 1.76 32.16 5.47 0.01
00732 TRULY INT'L 2018-06-15 520.00 0.90 19.14 4.69 0.01
00735 CP CLEAN ENERGY 2018-06-15 1.50 0.01 2.56 0.25 0.00
00743 ASIA CEMENT CH 2018-06-15 15.00 0.08 14.35 0.56 0.00
00750 SINGYES SOLAR 2018-06-15 843.00 2.05 13.82 14.86 0.02
00751 SKYWORTHDIGITAL 2018-06-15 1,360.00 5.37 62.37 8.61 0.04
00753 AIR CHINA 2018-06-15 750.00 7.51 298.48 2.52 0.06
00754 HOPSON DEV HOLD 2018-06-15 432.00 3.41 14.21 23.99 0.03
00762 CHINA UNICOM 2018-06-15 6,032.00 60.72 300.73 20.19 0.48
00763 ZTE 2018-06-15 1,015.60 14.39 778.45 1.85 0.11
00772 CHINA LIT 2018-06-15 426.80 33.52 283.98 11.80 0.27
00775 CKLIFE SCIENCES 2018-06-15 30.00 0.02 2.23 0.75 0.00
00777 NETDRAGON 2018-06-15 134.00 2.57 23.47 10.96 0.02
00778 FORTUNE REIT 2018-06-15 13.00 0.12 13.60 0.90 0.00
00787 GLOBAL BRANDS 2018-06-15 3,088.00 1.09 9.48 11.54 0.01
00798 CEOVU 2018-06-15 232.00 0.15 3.92 3.84 0.00
00799 IGG 2018-06-15 1,521.00 17.03 126.51 13.46 0.14
00806 VALUE PARTNERS 2018-06-15 799.00 5.40 32.31 16.71 0.04
00808 PROSPERITY REIT 2018-06-15 135.00 0.44 6.47 6.86 0.00
00811 XINHUA WINSHARE 2018-06-15 24.00 0.14 5.60 2.44 0.00
00813 SHIMAO PROPERTY 2018-06-15 505.50 13.12 204.32 6.42 0.10
00815 CHI SILVER GP 2018-06-15 332.00 0.47 7.07 6.63 0.00
00816 HUADIAN FUXIN 2018-06-15 34.00 0.07 14.54 0.46 0.00
00817 CHINA JINMAO 2018-06-15 7,684.00 34.37 140.98 24.38 0.27
00818 HI SUN TECH 2018-06-15 51.00 0.07 2.32 2.97 0.00
00819 TIANNENG POWER 2018-06-15 316.00 4.07 57.54 7.08 0.03
00823 LINK REIT 2018-06-15 699.00 49.92 725.80 6.88 0.40
00826 TIANGONG INT'L 2018-06-15 332.00 0.58 16.05 3.61 0.00
00832 CENTRAL CHINA 2018-06-15 424.00 1.83 19.49 9.41 0.01
00836 CHINA RES POWER 2018-06-15 472.00 7.04 208.41 3.38 0.06
00838 EVA HOLDINGS 2018-06-15 14.00 0.01 1.03 1.40 0.00
00839 CHINA EDU GROUP 2018-06-15 1,738.00 27.17 293.77 9.25 0.22
00845 GLORIOUS PPT H 2018-06-15 30.00 0.02 0.94 1.69 0.00
00853 MICROPORT 2018-06-15 2,030.00 21.68 51.95 41.73 0.17
00855 CHINA WATER 2018-06-15 1,170.00 9.41 53.32 17.65 0.07
00856 VSTECS 2018-06-15 152.00 0.66 6.52 10.07 0.01
00857 PETROCHINA 2018-06-15 13,384.00 81.86 838.91 9.76 0.65
00860 WE SOLUTIONS 2018-06-15 236.00 0.34 13.34 2.57 0.00
00861 DC HOLDINGS 2018-06-15 123.00 0.56 4.78 11.70 0.00
00867 CMS 2018-06-15 646.00 11.74 157.94 7.43 0.09
00868 XINYI GLASS 2018-06-15 4,180.00 41.05 270.62 15.17 0.33
00874 BAIYUNSHAN PH 2018-06-15 768.00 29.92 193.49 15.46 0.24
00877 O-NET TECH GP 2018-06-15 192.00 0.96 8.18 11.75 0.01
00880 SJM HOLDINGS 2018-06-15 3,173.00 32.68 146.95 22.24 0.26
00881 ZHONGSHENG HLDG 2018-06-15 1,342.00 36.37 130.20 27.94 0.29
00883 CNOOC 2018-06-15 7,642.00 98.85 1,148.14 8.61 0.78
00884 CIFI HOLD GP 2018-06-15 1,856.00 11.39 135.17 8.43 0.09
00895 DONGJIANG ENV 2018-06-15 89.20 1.10 11.36 9.68 0.01
00902 HUANENG POWER 2018-06-15 2,978.00 16.74 279.86 5.98 0.13
00906 COFCO PACKAGING 2018-06-15 273.00 1.43 49.29 2.89 0.01
00914 CONCH CEMENT 2018-06-15 1,995.00 99.13 443.52 22.35 0.79
00916 CHINA LONGYUAN 2018-06-15 4,540.00 31.18 172.46 18.08 0.25
00921 HISENSE KELON 2018-06-15 106.00 0.93 21.25 4.40 0.01
00931 CHINA LNG 2018-06-15 508.00 0.57 6.90 8.27 0.00
00934 SINOPEC KANTONS 2018-06-15 828.00 3.16 17.05 18.53 0.03
00939 CCB 2018-06-15 61,048.00 478.16 4,613.38 10.36 3.79
00941 CHINA MOBILE 2018-06-15 2,590.00 181.37 1,885.43 9.62 1.44
00950 LEE'S PHARM 2018-06-15 126.50 1.52 11.62 13.06 0.01
00951 CHAOWEI POWER 2018-06-15 937.00 4.02 16.62 24.20 0.03
00958 HN RENEWABLES 2018-06-15 8,064.00 24.18 140.71 17.19 0.19
00960 LONGFOR PPT 2018-06-15 551.50 13.70 116.38 11.77 0.11
00966 CHINA TAIPING 2018-06-15 1,631.80 47.27 270.31 17.49 0.37
00968 XINYI SOLAR 2018-06-15 19,972.00 49.87 118.37 42.13 0.40
00973 L'OCCITANE 2018-06-15 15.25 0.22 21.30 1.02 0.00
00976 CHIHO ENV 2018-06-15 30.00 0.11 17.01 0.62 0.00
00978 CHI MER LAND 2018-06-15 84.00 0.13 5.17 2.46 0.00
00981 SMIC 2018-06-15 3,848.00 44.66 1,096.00 4.08 0.35
00989 GROUND INTL DEV 2018-06-15 90.00 0.11 0.61 18.69 0.00
00991 DATANG POWER 2018-06-15 1,750.00 4.48 57.40 7.81 0.04
00992 LENOVO GROUP 2018-06-15 15,802.00 67.94 399.29 17.02 0.54
00993 HUARONG INT FIN 2018-06-15 3.00 0.01 2.12 0.24 0.00
00995 ANHUIEXPRESSWAY 2018-06-15 20.00 0.11 3.12 3.40 0.00
00996 CARNIVAL GROUP 2018-06-15 350.00 0.12 5.28 2.25 0.00
00998 CITIC BANK 2018-06-15 11,498.00 60.21 369.62 16.29 0.48
00999 I.T 2018-06-15 40.00 0.24 6.24 3.79 0.00
01003 HUANXI MEDIA 2018-06-15 130.00 0.25 7.92 3.12 0.00
01004 C SMARTERENERGY 2018-06-15 20.00 0.02 5.55 0.41 0.00
01028 C.BANNER 2018-06-15 88.00 0.21 6.97 2.97 0.00
01030 FUTURE LAND 2018-06-15 1,242.00 9.59 176.44 5.44 0.08
01031 KINGSTON FIN 2018-06-15 992.00 2.60 18.63 13.94 0.02
01033 SINOPEC SSC 2018-06-15 556.00 0.65 11.67 5.56 0.01
01038 CKI HOLDINGS 2018-06-15 246.00 14.47 192.34 7.52 0.11
01044 HENGAN INT'L 2018-06-15 644.00 50.10 260.78 19.21 0.40
01051 G-RESOURCES 2018-06-15 1,590.00 0.16 14.03 1.16 0.00
01052 YUEXIUTRANSPORT 2018-06-15 316.00 1.90 10.12 18.73 0.02
01055 CHINA SOUTH AIR 2018-06-15 1,802.00 16.19 224.35 7.22 0.13
01060 ALI PICTURES 2018-06-15 14,520.00 14.46 111.03 13.03 0.11
01061 ESSEX BIO-TECH 2018-06-15 42.00 0.30 2.09 14.17 0.00
01065 TIANJIN CAPITAL 2018-06-15 32.00 0.13 5.30 2.48 0.00
01066 WEIGAO GROUP 2018-06-15 292.00 1.86 83.18 2.23 0.01
01068 YURUN FOOD 2018-06-15 62.00 0.07 1.99 3.67 0.00
01070 TCL MULTIMEDIA 2018-06-15 234.00 0.94 21.23 4.44 0.01
01071 HUADIAN POWER 2018-06-15 1,004.00 3.47 43.60 7.95 0.03
01072 DONGFANG ELEC 2018-06-15 99.40 0.57 10.31 5.54 0.00
01083 TOWNGAS CHINA 2018-06-15 86.00 0.63 26.08 2.40 0.00
01086 GOODBABY INTL 2018-06-15 168.00 0.84 13.29 6.34 0.01
01088 CHINA SHENHUA 2018-06-15 2,547.00 54.23 564.87 9.60 0.43
01089 LEYOU TECH H 2018-06-15 890.00 2.30 15.96 14.41 0.02
01093 CSPC PHARMA 2018-06-15 330.00 8.12 1,216.47 0.67 0.06
01097 I-CABLE COMM 2018-06-15 120.00 0.02 0.83 2.22 0.00
01098 ROAD KING INFRA 2018-06-15 13.00 0.20 2.93 6.75 0.00
01099 SINOPHARM 2018-06-15 986.80 33.37 174.06 19.17 0.26
01109 CHINA RES LAND 2018-06-15 492.00 14.35 419.59 3.42 0.11
01112 H&H INTL HLDG 2018-06-15 142.50 8.22 144.42 5.69 0.07
01113 CK ASSET 2018-06-15 882.50 57.84 646.96 8.94 0.46
01114 BRILLIANCE CHI 2018-06-15 2,728.00 39.43 168.71 23.37 0.31
01115 TIBET WATER 2018-06-15 10.00 0.03 19.01 0.17 0.00
01117 CH MODERN D 2018-06-15 406.00 0.61 3.25 18.91 0.00
01128 WYNN MACAU 2018-06-15 1,098.40 30.61 218.15 14.03 0.24
01129 WATER INDUSTRY 2018-06-15 108.00 0.16 0.73 22.71 0.00
01131 AGRITRADE RES 2018-06-15 1,335.00 1.99 15.90 12.53 0.02
01133 HARBIN ELECTRIC 2018-06-15 968.00 2.45 6.51 37.63 0.02
01137 HKTV 2018-06-15 84.00 0.26 1.27 20.45 0.00
01138 COSCO SHIP ENGY 2018-06-15 1,086.00 4.62 43.56 10.61 0.04
01140 OP FINANCIAL 2018-06-15 132.00 0.44 6.58 6.70 0.00
01141 CMBC CAPITAL 2018-06-15 4,050.00 1.97 7.30 26.93 0.02
01157 ZOOMLION 2018-06-15 51.20 0.19 30.35 0.61 0.00
01166 SOLARTECH INT'L 2018-06-15 160.00 0.20 17.02 1.15 0.00
01168 SINOLINK HOLD 2018-06-15 30.00 0.03 1.39 2.12 0.00
01169 HAIER ELEC 2018-06-15 209.00 6.03 146.10 4.13 0.05
01171 YANZHOU COAL 2018-06-15 316.00 3.71 382.63 0.97 0.03
01176 ZHUGUANG HOLD 2018-06-15 32.00 0.05 4.63 0.99 0.00
01177 SINO BIOPHARM 2018-06-15 2,436.00 31.46 450.75 6.98 0.25
01186 CHINA RAIL CONS 2018-06-15 1,226.50 10.52 94.37 11.15 0.08
01188 HYBRID KINETIC 2018-06-15 4.00 0.00 2.33 0.02 0.00
01193 CHINA RES GAS 2018-06-15 238.00 7.25 101.33 7.16 0.06
01196 REALORD GROUP 2018-06-15 32.00 0.14 14.53 0.99 0.00
01199 COSCO SHIP PORT 2018-06-15 1,222.00 8.72 88.30 9.87 0.07
01205 CITIC RESOURCES 2018-06-15 396.00 0.35 4.94 7.00 0.00
01208 MMG 2018-06-15 1,020.00 6.36 49.35 12.90 0.05
01211 BYD COMPANY 2018-06-15 1,759.00 90.74 304.62 29.79 0.72
01212 LIFESTYLE INT'L 2018-06-15 119.50 2.09 59.27 3.53 0.02
01224 C C LAND 2018-06-15 6.00 0.01 1.51 0.71 0.00
01230 YASHILI INT'L 2018-06-15 126.00 0.25 1.54 16.13 0.00
01233 TIMES CHINA 2018-06-15 74.00 0.98 19.38 5.06 0.01
01234 CHINA LILANG 2018-06-15 173.00 2.18 24.69 8.82 0.02
01238 POWERLONG 2018-06-15 1.00 0.00 7.42 0.06 0.00
01243 WANG ON PPT 2018-06-15 96.00 0.11 12.68 0.85 0.00
01250 BE CLEAN ENERGY 2018-06-15 1,700.00 0.37 44.30 0.83 0.00
01253 GREENLAND BROAD 2018-06-15 12.00 0.01 1.73 0.74 0.00
01257 CEB GREENTECH 2018-06-15 6.00 0.05 33.14 0.14 0.00
01266 XIWANG STEEL 2018-06-15 41.00 0.07 11.90 0.60 0.00
01281 LT SMART ENERGY 2018-06-15 64.00 0.13 3.42 3.87 0.00
01282 CHINA GOLDJOY 2018-06-15 452.00 0.21 6.97 3.07 0.00
01288 ABC 2018-06-15 66,524.00 267.13 1,050.46 25.43 2.12
01293 GRAND BAOXIN 2018-06-15 145.00 0.50 3.75 13.31 0.00
01297 SINOSOFT TECH 2018-06-15 135.00 0.48 6.29 7.59 0.00
01299 AIA 2018-06-15 3,373.00 236.91 1,750.60 13.53 1.88
01302 LIFETECH SCI 2018-06-15 7,120.00 20.07 51.68 38.84 0.16
01310 HKBN 2018-06-15 29.00 0.32 35.20 0.92 0.00
01313 CHINARES CEMENT 2018-06-15 4,216.00 37.52 522.10 7.19 0.30
01316 NEXTEER 2018-06-15 163.00 2.04 38.00 5.37 0.02
01317 MAPLELEAF EDU 2018-06-15 334.00 4.80 106.09 4.53 0.04
01330 DYNAGREEN ENV 2018-06-15 625.00 2.50 18.90 13.20 0.02
01333 CHINA ZHONGWANG 2018-06-15 783.20 3.41 20.99 16.26 0.03
01336 NCI 2018-06-15 1,157.30 43.67 243.13 17.96 0.35
01337 RAZER 2018-06-15 12,673.00 28.32 139.52 20.30 0.22
01339 PICC GROUP 2018-06-15 13,203.00 53.11 383.33 13.85 0.42
01347 HUA HONG SEMI 2018-06-15 891.00 20.78 255.09 8.14 0.16
01359 CHINA CINDA 2018-06-15 3,066.00 8.56 183.93 4.65 0.07
01361 361 DEGREES 2018-06-15 3,136.00 7.59 43.32 17.52 0.06
01363 CTEG 2018-06-15 2,212.00 2.30 16.56 13.87 0.02
01368 XTEP INT'L 2018-06-15 266.00 1.44 60.07 2.39 0.01
01371 CHINA LOTSYN 2018-06-15 740.00 0.11 6.53 1.62 0.00
01375 CC SECURITIES 2018-06-15 336.00 0.88 3.29 26.64 0.01
01378 CHINAHONGQIAO 2018-06-15 1,408.50 11.29 49.79 22.68 0.09
01381 CANVEST ENV 2018-06-15 344.00 1.43 20.52 6.99 0.01
01382 PACIFICTEXTILES 2018-06-15 54.00 0.38 8.65 4.37 0.00
01385 SHANGHAI FUDAN 2018-06-15 12.00 0.11 3.14 3.47 0.00
01387 RENHE COMM 2018-06-15 236.00 0.03 0.60 5.87 0.00
01398 ICBC 2018-06-15 11,301.00 71.78 1,965.06 3.65 0.57
01426 SPRING REIT 2018-06-15 6.00 0.02 1.82 1.12 0.00
01432 CHINA SHENGMU 2018-06-15 257.00 0.20 6.99 2.81 0.00
01448 FU SHOU YUAN 2018-06-15 63.00 0.58 41.43 1.41 0.00
01456 GUOLIAN SEC 2018-06-15 1.50 0.00 0.12 3.39 0.00
01458 ZHOU HEI YA 2018-06-15 3,779.00 25.48 66.55 38.29 0.20
01462 GOLD-FIN HLDG 2018-06-15 110.00 0.32 48.94 0.66 0.00
01478 Q TECH 2018-06-15 729.00 5.01 27.88 17.98 0.04
01508 CHINA RE 2018-06-15 3,321.00 5.94 57.34 10.36 0.05
01513 LIVZON PHARMA 2018-06-15 98.00 5.69 26.63 21.38 0.05
01515 CRPHOENIXHEALTH 2018-06-15 460.00 4.56 17.86 25.53 0.04
01518 NC HEALTHCARE 2018-06-15 3.50 0.04 2.48 1.43 0.00
01528 RS MACALLINE 2018-06-15 101.60 1.12 46.12 2.42 0.01
01530 3SBIO 2018-06-15 532.50 10.20 287.67 3.54 0.08
01548 GENSCRIPT BIO 2018-06-15 3,074.00 68.19 492.47 13.85 0.54
01558 HEC PHARM 2018-06-15 62.80 2.76 160.87 1.71 0.02
01566 CHINA ANIMATION 2018-06-15 14.00 0.04 1.24 3.08 0.00
01569 MINSHENG EDU 2018-06-15 158.00 0.34 13.76 2.49 0.00
01571 XIN POINT HOLD 2018-06-15 7.00 0.04 5.06 0.78 0.00
01573 CH UNIENERGY 2018-06-15 18.00 0.14 8.76 1.60 0.00
01579 YIHAI INTL 2018-06-15 58.00 0.94 21.10 4.44 0.01
01585 YADEA 2018-06-15 36.00 0.11 5.38 2.13 0.00
01589 CNLP 2018-06-15 7.00 0.02 0.48 3.95 0.00
01599 UCD 2018-06-15 6.00 0.02 1.34 1.69 0.00
01608 VPOWER GROUP 2018-06-15 24.00 0.09 3.71 2.38 0.00
01610 COFCO MEAT 2018-06-15 167.00 0.21 4.15 4.97 0.00
01618 MCC 2018-06-15 331.00 0.79 47.97 1.64 0.01
01622 REDCO GROUP 2018-06-15 250.00 1.06 27.17 3.89 0.01
01628 YUZHOU PPT 2018-06-15 1,094.00 5.75 60.19 9.56 0.05
01636 CMRU 2018-06-15 4.00 0.02 4.85 0.41 0.00
01658 PSBC 2018-06-15 14,750.00 79.28 195.89 40.47 0.63
01666 TONG REN TANG 2018-06-15 398.00 5.54 46.03 12.04 0.04
01668 CHINASOUTHCITY 2018-06-15 1,670.00 2.78 24.04 11.56 0.02
01680 MACAU LEGEND 2018-06-15 85.00 0.13 3.18 3.96 0.00
01681 CONSUN PHARMA 2018-06-15 332.00 2.67 19.04 14.02 0.02
01686 SUNEVISION 2018-06-15 7.00 0.03 2.47 1.41 0.00
01700 SPRINGLAND 2018-06-15 4.00 0.01 7.36 0.11 0.00
01717 AUSNUTRIA 2018-06-15 8.00 0.08 10.15 0.77 0.00
01728 ZHENGTONGAUTO 2018-06-15 2,027.00 12.39 29.29 42.31 0.10
01766 CRRC 2018-06-15 1,348.00 8.94 175.33 5.10 0.07
01776 GF SEC 2018-06-15 962.40 12.12 121.67 9.96 0.10
01777 FANTASIA 2018-06-15 1,425.00 2.16 17.54 12.34 0.02
01778 COLOUR LIFE 2018-06-15 82.00 0.73 71.27 1.03 0.01
01788 GUOTAI JUNAN I 2018-06-15 3,760.00 7.38 24.83 29.71 0.06
01789 AK MEDICAL 2018-06-15 462.00 2.79 124.16 2.25 0.02
01798 DATANG RENEW 2018-06-15 7.00 0.01 6.58 0.16 0.00
01800 CHINA COMM CONS 2018-06-15 3,220.00 26.97 197.83 13.63 0.21
01811 CGN NEW ENERGY 2018-06-15 244.00 0.34 11.87 2.87 0.00
01812 CHENMING PAPER 2018-06-15 198.50 1.53 16.49 9.27 0.01
01813 KWG PROPERTY 2018-06-15 702.50 8.41 125.30 6.71 0.07
01816 CGN POWER 2018-06-15 10,287.00 21.75 160.30 13.57 0.17
01818 ZHAOJIN MINING 2018-06-15 3,703.50 22.90 102.40 22.37 0.18
01828 DCH HOLDINGS 2018-06-15 57.00 0.23 7.63 3.05 0.00
01829 CMEC 2018-06-15 636.00 2.78 14.02 19.80 0.02
01836 STELLA HOLDINGS 2018-06-15 162.00 1.49 4.33 34.41 0.01
01848 CALC 2018-06-15 2.00 0.02 3.57 0.46 0.00
01882 HAITIAN INT'L 2018-06-15 444.00 9.08 68.21 13.31 0.07
01883 CITIC TELECOM 2018-06-15 18.00 0.04 4.35 0.93 0.00
01888 KB LAMINATES 2018-06-15 1,681.00 17.38 86.56 20.08 0.14
01898 CHINA COAL 2018-06-15 830.00 2.95 35.51 8.29 0.02
01899 XINGDA INT'L 2018-06-15 101.00 0.25 7.12 3.52 0.00
01908 C&D INTL GROUP 2018-06-15 94.00 0.82 9.15 9.00 0.01
01910 SAMSONITE 2018-06-15 59.10 1.72 130.59 1.32 0.01
01913 PRADA 2018-06-15 22.60 0.86 51.15 1.69 0.01
01918 SUNAC 2018-06-15 3,911.00 127.32 495.22 25.71 1.01
01919 COSCO SHIP HOLD 2018-06-15 7,472.00 30.83 88.39 34.88 0.24
01928 SANDS CHINA LTD 2018-06-15 1,622.40 72.99 295.44 24.70 0.58
01929 CHOW TAI FOOK 2018-06-15 207.60 2.07 45.78 4.53 0.02
01958 BAIC MOTOR 2018-06-15 3,931.50 32.83 116.52 28.17 0.26
01963 BCQ 2018-06-15 700.50 3.89 10.70 36.35 0.03
01966 CHINA SCE PPT 2018-06-15 2,555.00 10.45 44.85 23.29 0.08
01970 IMAX CHINA 2018-06-15 159.40 4.30 105.08 4.09 0.03
01972 SWIREPROPERTIES 2018-06-15 2,084.20 67.04 296.09 22.64 0.53
01980 TIANGE 2018-06-15 216.00 1.48 56.18 2.63 0.01
01982 NAMESON HLDGS 2018-06-15 26.00 0.04 3.11 1.26 0.00
01988 MINSHENG BANK 2018-06-15 4,157.00 30.02 249.23 12.05 0.24
01997 WHARF REIC 2018-06-15 1,655.00 100.15 517.48 19.35 0.79
01999 MAN WAH HLDGS 2018-06-15 726.80 5.07 89.68 5.66 0.04
02001 NEW HIGHER EDU 2018-06-15 408.00 3.32 86.35 3.85 0.03
02005 SSY GROUP 2018-06-15 274.00 2.38 38.27 6.22 0.02
02006 JINJIANG HOTELS 2018-06-15 52.00 0.18 14.51 1.27 0.00
02007 COUNTRY GARDEN 2018-06-15 8,192.00 133.95 703.75 19.03 1.06
02008 PHOENIX TV 2018-06-15 24.00 0.02 2.04 0.84 0.00
02009 BBMG 2018-06-15 2,181.00 6.93 52.13 13.28 0.05
02014 OZNER WATER 2018-06-15 8.00 0.02 3.88 0.41 0.00
02018 AAC TECH 2018-06-15 395.00 47.64 527.76 9.03 0.38
02020 ANTA SPORTS 2018-06-15 713.00 31.24 1,208.51 2.58 0.25
02038 FIH 2018-06-15 2,624.00 3.52 12.61 27.90 0.03
02039 CIMC 2018-06-15 68.40 0.77 16.88 4.59 0.01
02098 ZALL GROUP 2018-06-15 1,915.00 17.03 63.88 26.66 0.14
02099 CHINAGOLDINTL 2018-06-15 43.00 0.64 12.02 5.33 0.01
02111 BEST PACIFIC 2018-06-15 4.00 0.01 0.21 5.40 0.00
02128 CHINA LESSO 2018-06-15 5.00 0.03 36.90 0.07 0.00
02136 LIFESTYLE CHI 2018-06-15 266.00 0.87 23.89 3.64 0.01
02186 LUYE PHARMA 2018-06-15 2,368.00 20.84 271.13 7.69 0.17
02196 FOSUN PHARMA 2018-06-15 610.50 29.37 145.73 20.15 0.23
02198 CHINA SANJIANG 2018-06-15 67.00 0.20 2.64 7.66 0.00
02199 REGINA MIRACLE 2018-06-15 2.00 0.01 3.79 0.34 0.00
02200 HOSA INT'L 2018-06-15 652.00 1.53 5.64 27.17 0.01
02202 CHINA VANKE 2018-06-15 473.00 14.70 285.47 5.15 0.12
02208 GOLDWIND 2018-06-15 67.00 0.69 67.74 1.02 0.01
02232 CRYSTAL INTL 2018-06-15 531.00 4.03 104.57 3.85 0.03
02233 WESTCHINACEMENT 2018-06-15 130.00 0.19 15.53 1.21 0.00
02236 WISON ENGRG 2018-06-15 35.00 0.05 4.72 1.03 0.00
02238 GAC GROUP 2018-06-15 4,198.00 36.26 312.54 11.60 0.29
02255 HAICHANG HLDG 2018-06-15 47.00 0.10 4.68 2.18 0.00
02268 YOUYUAN HLDGS 2018-06-15 818.00 3.34 25.00 13.37 0.03
02269 WUXI BIO 2018-06-15 2,995.50 263.72 686.88 38.39 2.09
02280 HC INTL 2018-06-15 381.50 1.83 11.72 15.65 0.01
02282 MGM CHINA 2018-06-15 874.40 18.33 58.71 31.22 0.15
02283 TK GROUP HLDG 2018-06-15 16.00 0.12 10.30 1.15 0.00
02298 COSMO LADY 2018-06-15 2.00 0.01 3.41 0.25 0.00
02303 HENGXING GOLD 2018-06-15 2.00 0.02 9.12 0.19 0.00
02313 SHENZHOU INTL 2018-06-15 286.00 28.59 420.14 6.81 0.23
02314 LEE & MAN PAPER 2018-06-15 1,038.00 9.12 45.85 19.90 0.07
02318 PING AN 2018-06-15 7,552.00 599.21 2,813.98 21.29 4.75
02319 MENGNIU DAIRY 2018-06-15 642.00 17.69 512.70 3.45 0.14
02328 PICC P&C 2018-06-15 902.00 12.56 342.70 3.67 0.10
02331 LI NING 2018-06-15 263.00 2.40 125.43 1.91 0.02
02333 GREATWALL MOTOR 2018-06-15 12,296.50 86.34 375.08 23.02 0.68
02338 WEICHAI POWER 2018-06-15 6,377.00 75.28 229.81 32.76 0.60
02342 COMBA 2018-06-15 630.00 0.79 5.30 14.87 0.01
02343 PACIFIC BASIN 2018-06-15 3,292.00 7.55 61.36 12.31 0.06
02348 DAWNRAYS PHARMA 2018-06-15 3.00 0.01 12.67 0.11 0.00
02356 DAHSING BANKING 2018-06-15 25.20 0.45 23.35 1.93 0.00
02357 AVICHINA 2018-06-15 586.00 2.68 158.25 1.69 0.02
02362 JINCHUAN INTL 2018-06-15 16.00 0.02 12.47 0.14 0.00
02380 CHINA POWER 2018-06-15 1,752.00 3.60 53.72 6.70 0.03
02382 SUNNY OPTICAL 2018-06-15 134.40 22.36 924.78 2.42 0.18
02383 TOM GROUP 2018-06-15 36.00 0.08 0.97 8.66 0.00
02386 SINOPEC SEG 2018-06-15 347.50 2.77 51.62 5.36 0.02
02388 BOC HONG KONG 2018-06-15 962.00 38.05 405.61 9.38 0.30
02389 BJ ENT M&H 2018-06-15 18.00 0.01 3.17 0.26 0.00
02588 BOC AVIATION 2018-06-15 59.60 2.97 52.21 5.69 0.02
02600 CHALCO 2018-06-15 6,810.00 26.64 227.47 11.71 0.21
02601 CPIC 2018-06-15 2,214.60 77.61 679.53 11.42 0.62
02607 SH PHARMA 2018-06-15 1,231.00 28.38 210.85 13.46 0.23
02608 SUNSHINE 100 2018-06-15 76.00 0.21 5.92 3.59 0.00
02611 GTJA 2018-06-15 1,951.80 35.37 63.05 56.10 0.28
02628 CHINA LIFE 2018-06-15 4,188.00 91.99 846.14 10.87 0.73
02638 HKELECTRIC-SS 2018-06-15 1,563.50 11.70 49.92 23.44 0.09
02662 CAMSING INTL 2018-06-15 14.00 0.10 7.97 1.27 0.00
02666 UNI MEDICAL 2018-06-15 226.00 1.48 16.21 9.16 0.01
02669 CHINA OVS PPT 2018-06-15 315.00 0.88 57.93 1.52 0.01
02678 TEXHONG TEXTILE 2018-06-15 12.00 0.16 10.53 1.52 0.00
02686 AAG ENERGY 2018-06-15 27.00 0.04 0.28 15.33 0.00
02688 ENN ENERGY 2018-06-15 25.00 1.92 269.97 0.71 0.02
02689 ND PAPER 2018-06-15 1,140.00 13.23 107.21 12.34 0.10
02698 WEIQIAO TEXTILE 2018-06-15 18.00 0.07 2.90 2.29 0.00
02727 SH ELECTRIC 2018-06-15 3,766.00 10.76 41.57 25.88 0.09
02768 JIAYUAN INTL 2018-06-15 2,224.00 31.12 67.13 46.36 0.25
02777 R&F PROPERTIES 2018-06-15 618.00 11.28 108.90 10.36 0.09
02778 CHAMPION REIT 2018-06-15 49.00 0.27 12.73 2.10 0.00
02799 CHINA HUARONG 2018-06-15 7,882.00 20.29 422.45 4.80 0.16
02800 TRACKER FUND 2018-06-15 36,999.50 1,143.51 2,313.08 49.44 9.07
02822 CSOP A50 ETF 2018-06-15 10,024.20 150.08 358.07 41.91 1.19
02823 ISHARES A50 2018-06-15 9,505.70 138.70 467.54 29.67 1.10
02828 HSCEI ETF 2018-06-15 3,159.40 383.42 1,616.38 23.72 3.04
02858 YIXIN 2018-06-15 793.50 3.04 115.97 2.63 0.02
02866 COSCO SHIP DEV 2018-06-15 4,072.00 5.98 24.61 24.30 0.05
02868 BJ CAPITAL LAND 2018-06-15 204.00 0.81 8.37 9.66 0.01
02869 GREENTOWN SER 2018-06-15 1,518.00 11.75 60.27 19.49 0.09
02877 SHINEWAY PHARM 2018-06-15 155.00 2.53 17.28 14.66 0.02
02880 DALIAN PORT 2018-06-15 192.00 0.24 6.57 3.69 0.00
02883 CHINA OILFIELD 2018-06-15 846.00 6.23 121.70 5.12 0.05
02888 STANCHART 2018-06-15 362.80 27.59 99.46 27.74 0.22
02899 ZIJIN MINING 2018-06-15 8,154.00 27.80 244.21 11.38 0.22
03015 X TRNIFTY50 2018-06-15 0.50 0.62 2.54 24.34 0.00
03147 CSOP CHINEXT 2018-06-15 6.40 0.05 3.39 1.39 0.00
03169 VANGUARDCHINA 2018-06-15 34.40 0.35 0.51 67.42 0.00
03188 CAM CSI300 2018-06-15 3,199.20 149.99 292.61 51.26 1.19
03301 RONSHINECHINA 2018-06-15 150.00 1.83 61.89 2.96 0.01
03306 JNBY 2018-06-15 70.00 1.43 14.48 9.86 0.01
03308 GOLDEN EAGLE 2018-06-15 15.00 0.14 7.72 1.86 0.00
03309 C-MER EYE 2018-06-15 14.00 0.13 6.09 2.08 0.00
03311 CHINA STATE CON 2018-06-15 1,748.00 16.27 76.41 21.30 0.13
03319 A-LIVING 2018-06-15 2,499.75 39.53 202.02 19.57 0.31
03320 CHINARES PHARMA 2018-06-15 1,867.00 21.45 97.37 22.03 0.17
03323 CNBM 2018-06-15 5,504.00 52.66 316.65 16.63 0.42
03328 BANKCOMM 2018-06-15 6,328.00 39.86 240.64 16.56 0.32
03331 VINDA INT'L 2018-06-15 22.00 0.31 1.11 27.83 0.00
03333 EVERGRANDE 2018-06-15 6,444.00 147.58 510.52 28.91 1.17
03336 JU TENG INTL 2018-06-15 196.00 0.26 2.91 8.80 0.00
03337 ANTON OILFIELD 2018-06-15 798.00 0.90 33.46 2.70 0.01
03339 LONKING 2018-06-15 1,257.00 5.33 117.89 4.52 0.04
03360 FE HORIZON 2018-06-15 535.00 4.38 69.05 6.34 0.03
03369 QHD PORT 2018-06-15 0.50 0.00 2.17 0.05 0.00
03377 SINO-OCEAN GP 2018-06-15 1,804.00 9.81 108.49 9.04 0.08
03378 XIAMEN PORT 2018-06-15 60.00 0.08 3.92 2.16 0.00
03380 LOGAN PPT 2018-06-15 756.00 9.06 74.66 12.14 0.07
03382 TIANJINPORT DEV 2018-06-15 24.00 0.03 3.75 0.68 0.00
03383 AGILE GROUP 2018-06-15 28.00 0.44 81.02 0.55 0.00
03393 WASION GROUP 2018-06-15 4.00 0.02 4.61 0.41 0.00
03396 LEGENDHOLDING 2018-06-15 75.90 1.85 37.87 4.90 0.01
03606 FUYAO GLASS 2018-06-15 352.80 10.28 73.81 13.92 0.08
03613 TONGRENTANGCM 2018-06-15 51.00 0.86 18.81 4.58 0.01
03618 CQRC BANK 2018-06-15 1,022.00 5.39 51.18 10.54 0.04
03633 ZHONGYU GAS 2018-06-15 116.00 0.76 71.55 1.07 0.01
03636 POLY CULTURE 2018-06-15 16.90 0.22 2.44 9.02 0.00
03669 YONGDA AUTO 2018-06-15 876.50 7.80 38.39 20.31 0.06
03688 TOP SPRING 2018-06-15 60.00 0.17 2.91 5.91 0.00
03709 KORADIOR 2018-06-15 1.00 0.01 1.47 0.69 0.00
03799 DALI FOODS 2018-06-15 2,779.50 17.18 115.85 14.83 0.14
03800 GCL-POLY ENERGY 2018-06-15 9,760.00 7.60 77.99 9.74 0.06
03808 SINOTRUK 2018-06-15 4,362.00 57.60 191.45 30.09 0.46
03813 POU SHENG INT'L 2018-06-15 1,209.00 1.80 23.18 7.78 0.01
03818 CHINA DONGXIANG 2018-06-15 671.00 1.00 7.85 12.74 0.01
03836 HARMONY AUTO 2018-06-15 782.00 3.08 20.81 14.81 0.02
03883 CHINA AOYUAN 2018-06-15 605.00 4.16 47.23 8.82 0.03
03888 KINGSOFT 2018-06-15 2,060.00 51.57 181.52 28.41 0.41
03898 CRRC TIMES ELEC 2018-06-15 614.80 23.29 103.39 22.53 0.18
03899 CIMC ENRIC 2018-06-15 360.00 2.89 43.96 6.57 0.02
03900 GREENTOWN CHINA 2018-06-15 937.00 11.48 55.70 20.62 0.09
03908 CICC 2018-06-15 977.20 16.12 203.36 7.92 0.13
03918 NAGACORP 2018-06-15 612.00 4.40 39.01 11.27 0.03
03933 UNITED LAB 2018-06-15 1,318.00 11.16 51.79 21.56 0.09
03948 YITAI COAL 2018-06-15 15.30 0.16 0.92 16.94 0.00
03958 DFZQ 2018-06-15 617.60 3.89 16.12 24.14 0.03
03968 CM BANK 2018-06-15 882.50 27.92 541.79 5.15 0.22
03969 CHINA CRSC 2018-06-15 813.00 4.60 26.53 17.36 0.04
03983 CHINA BLUECHEM 2018-06-15 692.00 1.95 18.97 10.27 0.02
03988 BANK OF CHINA 2018-06-15 36,445.00 149.74 1,422.97 10.52 1.19
03989 CAPITAL ENV 2018-06-15 224.00 0.05 4.58 1.19 0.00
03993 CMOC 2018-06-15 10,338.00 43.82 271.29 16.15 0.35
03996 CH ENERGY ENG 2018-06-15 16.00 0.02 2.02 1.08 0.00
03998 BOSIDENG 2018-06-15 22.00 0.02 19.77 0.11 0.00
06030 CITIC SEC 2018-06-15 3,887.50 72.66 563.66 12.89 0.58
06060 ZA ONLINE 2018-06-15 146.20 7.88 124.92 6.31 0.06
06066 CSC 2018-06-15 621.00 3.97 13.64 29.10 0.03
06068 WISDOM EDU INTL 2018-06-15 206.00 1.45 29.81 4.85 0.01
06088 FIT HON TENG 2018-06-15 393.00 1.38 17.83 7.74 0.01
06099 CMSC 2018-06-15 821.20 9.29 31.33 29.66 0.07
06116 LA CHAPELLE 2018-06-15 5.80 0.05 50.43 0.10 0.00
06138 HARBIN BANK 2018-06-15 4.00 0.01 2.19 0.35 0.00
06169 YUHUA EDU 2018-06-15 342.00 2.05 91.86 2.23 0.02
06178 EB SECURITIES 2018-06-15 67.00 0.61 11.04 5.54 0.00
06198 QINGDAO PORT 2018-06-15 247.00 1.49 18.49 8.04 0.01
06808 SUNART RETAIL 2018-06-15 608.50 6.62 398.95 1.66 0.05
06818 CEB BANK 2018-06-15 1,963.00 7.59 69.28 10.95 0.06
06823 HKT-SS 2018-06-15 401.00 4.04 111.89 3.61 0.03
06828 BG BLUE SKY 2018-06-15 440.00 0.23 16.34 1.43 0.00
06837 HAITONG SEC 2018-06-15 4,020.80 36.84 264.46 13.93 0.29
06869 YOFC 2018-06-15 628.50 21.06 89.43 23.55 0.17
06881 CGS 2018-06-15 3,843.00 18.05 109.53 16.48 0.14
06886 HTSC 2018-06-15 796.80 11.38 198.25 5.74 0.09
06889 DYNAM JAPAN 2018-06-15 18.00 0.19 3.67 5.09 0.00
07200 FL2 CSOP HSI 2018-06-15 589.70 7.06 28.01 25.20 0.06
07205 FL2SAMSUNGHSI 2018-06-15 10.80 0.11 0.83 12.91 0.00
07221 FL2CAMDXNHSI 2018-06-15 24.00 0.32 21.46 1.48 0.00
07228 FL2SAMSUNGHSCEI 2018-06-15 609.00 5.02 71.59 7.01 0.04
07230 FL2 MR HSCEI 2018-06-15 1.00 0.01 2.86 0.36 0.00
07231 FL2 MR HSI 2018-06-15 2.00 0.02 0.98 2.54 0.00
07242 FL2EFUND YT HSI 2018-06-15 6.00 0.05 0.12 37.63 0.00
07267 FL2CAMDXNHSCEI 2018-06-15 92.90 1.02 2.20 46.13 0.01
07288 FL2 CSOP HSCEI 2018-06-15 278.30 2.74 20.05 13.65 0.02
07300 FI CSOP HSI 2018-06-15 941.60 4.92 67.99 7.23 0.04
07321 FICAMDXNHSI 2018-06-15 1,144.40 6.64 17.23 38.54 0.05
07388 FI CSOP HSCEI 2018-06-15 171.90 0.97 24.50 3.95 0.01
08032 VIVA CHINA 2018-06-15 56.00 0.05 4.24 1.24 0.00
08083 CHINA YOUZAN 2018-06-15 3,768.00 4.23 81.84 5.17 0.03
08137 HONBRIDGE 2018-06-15 128.00 0.19 3.83 4.90 0.00
08158 CRMI 2018-06-15 545.00 0.07 1.38 5.42 0.00
08207 CHONGSING HLDGS 2018-06-15 14,696.00 13.87 55.17 25.15 0.11
08279 AGTECH HOLDINGS 2018-06-15 152.00 0.14 3.29 4.25 0.00

Top